Private Wetterstation Wechselburg
Wetterdaten: Montag, 06.06.2016
Datum Zeit Temp. +2m Bodentemp. Temp.+5cm Temp. Wind Windchill X Diff Temp. Feuchte +2m Feuchte +5cm Sonnenschein Luftdruck Regen Wind Richtung Richtung Sonnenschein Taupunkt Windchill Windben
06.06.2016 00:00 14,0 C 24,0 C 15,4 C 14,0 C 13,9 C 0,0 C 83 % 87 % 0 % 1016,9 hPa 0,0 l/m 0,0 km/h (0 Bft) O-SO 112 0 min 11,2 C 13,9 C 0,0 km/h (0 Bft)
06.06.2016 00:05 13,9 C 24,0 C 15,3 C 13,9 C 13,9 C 0,0 C 83 % 87 % 0 % 1017,1 hPa 0,0 l/m 0,0 km/h (0 Bft) O 90 0 min 11,1 C 13,9 C 0,0 km/h (0 Bft)
06.06.2016 00:10 13,9 C 24,0 C 15,2 C 13,9 C 13,9 C 0,0 C 83 % 87 % 0 % 1017,1 hPa 0,0 l/m 0,0 km/h (0 Bft) N-NO 22 0 min 11,1 C 13,9 C 0,0 km/h (0 Bft)
06.06.2016 00:15 13,8 C 24,0 C 15,1 C 13,9 C 13,9 C 0,1 C 84 % 87 % 0 % 1017,1 hPa 0,0 l/m 0,0 km/h (0 Bft) O-NO 67 0 min 11,1 C 13,9 C 0,0 km/h (0 Bft)
06.06.2016 00:20 13,7 C 24,0 C 15,1 C 13,8 C 13,8 C 0,1 C 84 % 87 % 0 % 1017,1 hPa 0,0 l/m 0,0 km/h (0 Bft) NW 315 0 min 11,0 C 13,8 C 0,0 km/h (0 Bft)
06.06.2016 00:30 13,5 C 24,0 C 14,9 C 13,5 C 13,5 C 0,0 C 84 % 88 % 0 % 1017,2 hPa 0,0 l/m 0,0 km/h (0 Bft) O-NO 67 0 min 10,8 C 13,5 C 0,0 km/h (0 Bft)
06.06.2016 00:35 13,5 C 23,9 C 14,8 C 13,5 C 13,5 C 0,0 C 84 % 88 % 0 % 1017,2 hPa 0,0 l/m 0,0 km/h (0 Bft) O-NO 67 0 min 10,8 C 13,5 C 0,0 km/h (0 Bft)
06.06.2016 00:47 13,2 C 23,9 C 14,7 C 13,2 C 13,2 C 0,0 C 84 % 88 % 0 % 1017,2 hPa 0,0 l/m 0,0 km/h (0 Bft) N 0 0 min 10,6 C 13,2 C 0,0 km/h (0 Bft)
06.06.2016 00:58 13,1 C 23,9 C 14,7 C 13,1 C 13,1 C 0,0 C 85 % 88 % 0 % 1017,2 hPa 0,0 l/m 0,0 km/h (0 Bft) N-NW 337 0 min 10,6 C 13,1 C 0,0 km/h (0 Bft)
06.06.2016 00:59 13,1 C 23,9 C 14,7 C 13,1 C 13,1 C 0,0 C 85 % 88 % 0 % 1017,2 hPa 0,0 l/m 0,0 km/h (0 Bft) N-NW 337 0 min 10,6 C 13,1 C 0,0 km/h (0 Bft)
06.06.2016 01:00 13,1 C 23,9 C 14,7 C 13,1 C 13,1 C 0,0 C 85 % 88 % 0 % 1017,2 hPa 0,0 l/m 0,0 km/h (0 Bft) N-NW 337 0 min 10,6 C 13,1 C 0,0 km/h (0 Bft)
06.06.2016 01:01 13,1 C 23,9 C 14,7 C 13,1 C 13,1 C 0,0 C 85 % 88 % 0 % 1017,2 hPa 0,0 l/m 0,0 km/h (0 Bft) N-NW 337 0 min 10,6 C 13,1 C 0,0 km/h (0 Bft)
06.06.2016 01:02 13,1 C 23,9 C 14,7 C 13,1 C 13,1 C 0,0 C 85 % 88 % 0 % 1017,2 hPa 0,0 l/m 0,0 km/h (0 Bft) N-NW 337 0 min 10,6 C 13,1 C 0,0 km/h (0 Bft)
06.06.2016 01:05 12,9 C 23,8 C 14,5 C 13,0 C 13,0 C 0,1 C 85 % 88 % 0 % 1017,4 hPa 0,0 l/m 0,0 km/h (0 Bft) W-SW 247 0 min 10,4 C 13,0 C 0,0 km/h (0 Bft)
06.06.2016 01:10 12,8 C 23,8 C 14,5 C 12,9 C 12,9 C 0,1 C 85 % 88 % 0 % 1017,4 hPa 0,0 l/m 0,0 km/h (0 Bft) W 270 0 min 10,3 C 12,9 C 0,0 km/h (0 Bft)
06.06.2016 01:15 12,9 C 23,8 C 14,4 C 12,9 C 12,8 C 0,0 C 85 % 88 % 0 % 1017,4 hPa 0,0 l/m 0,0 km/h (0 Bft) W 270 0 min 10,4 C 12,8 C 0,0 km/h (0 Bft)
06.06.2016 01:20 12,8 C 23,8 C 14,4 C 12,8 C 12,8 C 0,0 C 85 % 88 % 0 % 1017,4 hPa 0,0 l/m 0,0 km/h (0 Bft) S 180 0 min 10,3 C 12,8 C 0,0 km/h (0 Bft)
06.06.2016 01:25 12,7 C 23,9 C 14,3 C 12,7 C 12,7 C 0,0 C 85 % 88 % 0 % 1017,2 hPa 0,0 l/m 0,0 km/h (0 Bft) O-NO 67 0 min 10,2 C 12,7 C 0,0 km/h (0 Bft)
06.06.2016 01:30 12,7 C 23,9 C 14,3 C 12,8 C 12,8 C 0,1 C 85 % 88 % 0 % 1017,2 hPa 0,0 l/m 0,0 km/h (0 Bft) O 90 0 min 10,2 C 12,8 C 0,0 km/h (0 Bft)
06.06.2016 01:35 12,6 C 23,8 C 14,3 C 12,9 C 12,9 C 0,3 C 86 % 89 % 0 % 1017,2 hPa 0,0 l/m 0,0 km/h (0 Bft) O-NO 67 0 min 10,3 C 12,9 C 0,0 km/h (0 Bft)
06.06.2016 01:40 12,7 C 23,8 C 14,2 C 12,8 C 12,8 C 0,1 C 86 % 89 % 0 % 1017,2 hPa 0,0 l/m 0,0 km/h (0 Bft) NW 315 0 min 10,4 C 12,8 C 0,0 km/h (0 Bft)
06.06.2016 01:45 12,6 C 23,8 C 14,3 C 12,7 C 12,7 C 0,1 C 86 % 89 % 0 % 1017,2 hPa 0,0 l/m 0,0 km/h (0 Bft) NW 315 0 min 10,3 C 12,7 C 0,0 km/h (0 Bft)
06.06.2016 01:50 12,5 C 23,8 C 14,3 C 12,7 C 12,7 C 0,2 C 86 % 89 % 0 % 1017,2 hPa 0,0 l/m 0,0 km/h (0 Bft) NW 315 0 min 10,2 C 12,7 C 0,0 km/h (0 Bft)
06.06.2016 01:55 12,5 C 23,8 C 14,1 C 12,6 C 12,6 C 0,1 C 86 % 89 % 0 % 1017,2 hPa 0,0 l/m 0,0 km/h (0 Bft) W 270 0 min 10,2 C 12,6 C 0,0 km/h (0 Bft)
06.06.2016 02:00 12,5 C 23,8 C 14,1 C 12,5 C 12,5 C 0,0 C 86 % 89 % 0 % 1017,2 hPa 0,0 l/m 0,0 km/h (0 Bft) SW 225 0 min 10,2 C 12,5 C 0,0 km/h (0 Bft)
06.06.2016 02:05 12,3 C 23,8 C 14,0 C 12,4 C 12,4 C 0,1 C 86 % 89 % 0 % 1017,3 hPa 0,0 l/m 0,0 km/h (0 Bft) NW 315 0 min 10,0 C 12,4 C 0,0 km/h (0 Bft)
06.06.2016 02:10 12,3 C 23,8 C 14,0 C 12,3 C 12,3 C 0,0 C 86 % 89 % 0 % 1017,3 hPa 0,0 l/m 0,0 km/h (0 Bft) NW 315 0 min 10,0 C 12,3 C 0,0 km/h (0 Bft)
06.06.2016 02:15 12,3 C 23,8 C 13,9 C 12,3 C 12,3 C 0,0 C 86 % 89 % 0 % 1017,3 hPa 0,0 l/m 0,0 km/h (0 Bft) NW 315 0 min 10,0 C 12,3 C 0,0 km/h (0 Bft)
06.06.2016 02:20 12,3 C 23,8 C 13,9 C 12,3 C 12,3 C 0,0 C 86 % 89 % 0 % 1017,3 hPa 0,0 l/m 0,0 km/h (0 Bft) NW 315 0 min 10,0 C 12,3 C 0,0 km/h (0 Bft)
06.06.2016 02:25 12,1 C 23,8 C 13,8 C 12,2 C 12,2 C 0,1 C 86 % 89 % 0 % 1017,4 hPa 0,0 l/m 0,0 km/h (0 Bft) NW 315 0 min 9,8 C 12,2 C 0,0 km/h (0 Bft)
06.06.2016 02:35 12,1 C 23,8 C 13,7 C 12,3 C 12,3 C 0,2 C 87 % 89 % 0 % 1017,4 hPa 0,0 l/m 0,0 km/h (0 Bft) NW 315 0 min 10,0 C 12,3 C 0,0 km/h (0 Bft)
06.06.2016 02:40 12,0 C 23,8 C 13,7 C 12,3 C 12,3 C 0,3 C 87 % 89 % 0 % 1017,4 hPa 0,0 l/m 0,0 km/h (0 Bft) NW 315 0 min 9,9 C 12,3 C 0,0 km/h (0 Bft)
06.06.2016 02:45 12,0 C 23,8 C 13,6 C 12,3 C 12,3 C 0,3 C 87 % 89 % 0 % 1017,3 hPa 0,0 l/m 0,0 km/h (0 Bft) NW 315 0 min 9,9 C 12,3 C 0,0 km/h (0 Bft)
06.06.2016 02:50 12,0 C 23,8 C 13,6 C 12,3 C 12,3 C 0,3 C 87 % 89 % 0 % 1017,3 hPa 0,0 l/m 0,0 km/h (0 Bft) O-NO 67 0 min 9,9 C 12,3 C 0,0 km/h (0 Bft)
06.06.2016 02:55 12,0 C 23,8 C 13,6 C 12,3 C 12,3 C 0,3 C 87 % 89 % 0 % 1017,3 hPa 0,0 l/m 0,0 km/h (0 Bft) O-NO 67 0 min 9,9 C 12,3 C 0,0 km/h (0 Bft)
06.06.2016 03:00 12,1 C 23,8 C 13,7 C 12,4 C 12,4 C 0,3 C 87 % 89 % 0 % 1017,3 hPa 0,0 l/m 0,0 km/h (0 Bft) NO 45 0 min 10,0 C 12,4 C 0,0 km/h (0 Bft)
06.06.2016 03:05 12,0 C 23,8 C 13,6 C 12,3 C 12,3 C 0,3 C 87 % 89 % 0 % 1017,3 hPa 0,0 l/m 0,0 km/h (0 Bft) NO 45 0 min 9,9 C 12,3 C 0,0 km/h (0 Bft)
06.06.2016 03:10 12,1 C 23,8 C 13,5 C 12,3 C 12,3 C 0,2 C 87 % 89 % 0 % 1017,3 hPa 0,0 l/m 0,0 km/h (0 Bft) O-SO 112 0 min 10,0 C 12,3 C 0,0 km/h (0 Bft)
06.06.2016 03:15 11,9 C 23,6 C 13,5 C 12,1 C 12,1 C 0,2 C 87 % 89 % 0 % 1017,3 hPa 0,0 l/m 0,0 km/h (0 Bft) W 270 0 min 9,8 C 12,1 C 0,0 km/h (0 Bft)
06.06.2016 03:20 11,8 C 23,6 C 13,5 C 12,0 C 12,0 C 0,2 C 87 % 89 % 0 % 1017,3 hPa 0,0 l/m 0,0 km/h (0 Bft) W-SW 247 0 min 9,7 C 12,0 C 0,0 km/h (0 Bft)
06.06.2016 03:25 11,7 C 23,6 C 13,4 C 11,9 C 11,9 C 0,2 C 87 % 89 % 0 % 1017,5 hPa 0,0 l/m 0,0 km/h (0 Bft) S-SO 157 0 min 9,6 C 11,9 C 0,0 km/h (0 Bft)
06.06.2016 03:35 11,6 C 23,5 C 13,2 C 11,8 C 11,8 C 0,2 C 87 % 89 % 0 % 1017,5 hPa 0,0 l/m 0,0 km/h (0 Bft) W 270 0 min 9,5 C 11,8 C 0,0 km/h (0 Bft)
06.06.2016 03:47 11,6 C 23,6 C 13,2 C 11,6 C 11,6 C 0,0 C 87 % 89 % 0 % 1017,2 hPa 0,0 l/m 0,0 km/h (0 Bft) N-NW 337 0 min 9,5 C 11,6 C 0,0 km/h (0 Bft)
06.06.2016 03:48 11,5 C 23,7 C 13,2 C 11,7 C 11,7 C 0,2 C 87 % 90 % 0 % 1017,2 hPa 0,0 l/m 0,0 km/h (0 Bft) O-NO 67 0 min 9,4 C 11,7 C 0,0 km/h (0 Bft)
06.06.2016 03:49 11,5 C 23,7 C 13,2 C 11,7 C 11,7 C 0,2 C 87 % 90 % 0 % 1017,2 hPa 0,0 l/m 0,0 km/h (0 Bft) O-NO 67 0 min 9,4 C 11,7 C 0,0 km/h (0 Bft)
06.06.2016 03:50 11,5 C 23,7 C 13,2 C 11,7 C 11,7 C 0,2 C 87 % 90 % 0 % 1017,2 hPa 0,0 l/m 0,0 km/h (0 Bft) O-NO 67 0 min 9,4 C 11,7 C 0,0 km/h (0 Bft)
06.06.2016 03:51 11,5 C 23,7 C 13,2 C 11,7 C 11,7 C 0,2 C 87 % 90 % 0 % 1017,2 hPa 0,0 l/m 0,0 km/h (0 Bft) O-NO 67 0 min 9,4 C 11,7 C 0,0 km/h (0 Bft)
06.06.2016 03:52 11,6 C 23,7 C 13,1 C 11,8 C 11,8 C 0,2 C 88 % 90 % 0 % 1017,2 hPa 0,0 l/m 0,0 km/h (0 Bft) SO 135 0 min 9,7 C 11,8 C 0,0 km/h (0 Bft)
06.06.2016 03:56 11,6 C 23,7 C 13,1 C 11,8 C 11,8 C 0,2 C 88 % 90 % 0 % 1017,2 hPa 0,0 l/m 0,0 km/h (0 Bft) SO 135 0 min 9,7 C 11,8 C 0,0 km/h (0 Bft)
06.06.2016 04:05 11,5 C 23,7 C 12,9 C 11,7 C 11,7 C 0,2 C 88 % 89 % 0 % 1017,2 hPa 0,0 l/m 0,0 km/h (0 Bft) NO 45 0 min 9,6 C 11,7 C 0,0 km/h (0 Bft)
06.06.2016 04:10 11,5 C 23,7 C 12,9 C 11,7 C 11,7 C 0,2 C 88 % 89 % 0 % 1017,2 hPa 0,0 l/m 0,0 km/h (0 Bft) NO 45 0 min 9,6 C 11,7 C 0,0 km/h (0 Bft)
06.06.2016 04:15 11,5 C 23,6 C 12,9 C 11,6 C 11,6 C 0,1 C 88 % 89 % 0 % 1017,2 hPa 0,0 l/m 0,0 km/h (0 Bft) NO 45 0 min 9,6 C 11,6 C 0,0 km/h (0 Bft)
06.06.2016 04:20 11,4 C 23,6 C 12,8 C 11,5 C 11,5 C 0,1 C 88 % 89 % 0 % 1017,2 hPa 0,0 l/m 0,0 km/h (0 Bft) NO 45 0 min 9,5 C 11,5 C 0,0 km/h (0 Bft)
06.06.2016 04:25 11,3 C 23,5 C 12,8 C 11,4 C 11,4 C 0,1 C 88 % 90 % 0 % 1017,2 hPa 0,0 l/m 0,0 km/h (0 Bft) NW 315 0 min 9,4 C 11,4 C 0,0 km/h (0 Bft)
06.06.2016 04:30 11,2 C 23,5 C 12,8 C 11,3 C 11,3 C 0,1 C 88 % 90 % 0 % 1017,2 hPa 0,0 l/m 0,0 km/h (0 Bft) W 270 0 min 9,3 C 11,3 C 0,0 km/h (0 Bft)
06.06.2016 04:35 11,2 C 23,5 C 12,8 C 11,3 C 11,3 C 0,1 C 88 % 89 % 0 % 1017,2 hPa 0,0 l/m 0,0 km/h (0 Bft) W 270 0 min 9,3 C 11,3 C 0,0 km/h (0 Bft)
06.06.2016 04:40 11,1 C 23,6 C 12,8 C 11,2 C 11,2 C 0,1 C 88 % 90 % 0 % 1017,2 hPa 0,0 l/m 0,0 km/h (0 Bft) W 270 0 min 9,2 C 11,2 C 0,0 km/h (0 Bft)
06.06.2016 04:45 11,1 C 23,5 C 12,7 C 11,2 C 11,2 C 0,1 C 88 % 90 % 0 % 1017,1 hPa 0,0 l/m 0,0 km/h (0 Bft) N-NW 337 0 min 9,2 C 11,2 C 0,0 km/h (0 Bft)
06.06.2016 04:50 11,0 C 23,5 C 12,7 C 11,1 C 11,1 C 0,1 C 88 % 90 % 0 % 1017,1 hPa 0,0 l/m 0,0 km/h (0 Bft) W-NW 292 0 min 9,1 C 11,1 C 0,0 km/h (0 Bft)
06.06.2016 04:55 10,9 C 23,5 C 12,7 C 11,1 C 11,1 C 0,2 C 88 % 90 % 0 % 1017,1 hPa 0,0 l/m 0,0 km/h (0 Bft) S 180 0 min 9,0 C 11,1 C 0,0 km/h (0 Bft)
06.06.2016 05:00 10,9 C 23,5 C 12,7 C 11,1 C 11,1 C 0,2 C 88 % 90 % 0 % 1017,1 hPa 0,0 l/m 0,0 km/h (0 Bft) S 180 0 min 9,0 C 11,1 C 0,0 km/h (0 Bft)
06.06.2016 05:05 10,8 C 23,5 C 12,6 C 11,1 C 11,1 C 0,3 C 88 % 90 % 0 % 1017,4 hPa 0,0 l/m 0,0 km/h (0 Bft) W 270 0 min 8,9 C 11,1 C 0,0 km/h (0 Bft)
06.06.2016 05:10 10,8 C 23,5 C 12,6 C 11,1 C 11,1 C 0,3 C 88 % 90 % 8 % 1017,4 hPa 0,0 l/m 0,0 km/h (0 Bft) W 270 5 min 8,9 C 11,1 C 0,0 km/h (0 Bft)
06.06.2016 05:15 10,9 C 23,5 C 12,7 C 11,0 C 11,0 C 0,1 C 88 % 90 % 3 % 1017,4 hPa 0,0 l/m 0,0 km/h (0 Bft) W 270 0 min 9,0 C 11,0 C 0,0 km/h (0 Bft)
06.06.2016 05:20 10,9 C 23,4 C 12,5 C 11,0 C 11,0 C 0,1 C 88 % 90 % 3 % 1017,4 hPa 0,0 l/m 0,0 km/h (0 Bft) W 270 0 min 9,0 C 11,0 C 0,0 km/h (0 Bft)
06.06.2016 05:25 10,8 C 23,4 C 12,5 C 11,0 C 11,0 C 0,2 C 89 % 90 % 5 % 1017,4 hPa 0,0 l/m 0,0 km/h (0 Bft) W 270 0 min 9,1 C 11,0 C 0,0 km/h (0 Bft)
06.06.2016 05:30 10,8 C 23,5 C 12,7 C 11,1 C 11,1 C 0,3 C 89 % 90 % 8 % 1017,4 hPa 0,0 l/m 0,0 km/h (0 Bft) S 180 0 min 9,1 C 11,1 C 0,0 km/h (0 Bft)
06.06.2016 05:35 10,8 C 23,5 C 12,7 C 11,2 C 11,2 C 0,4 C 89 % 90 % 11 % 1017,4 hPa 0,0 l/m 0,0 km/h (0 Bft) W 270 0 min 9,1 C 11,2 C 0,0 km/h (0 Bft)
06.06.2016 05:40 10,8 C 23,4 C 12,6 C 11,3 C 11,3 C 0,5 C 89 % 90 % 13 % 1017,4 hPa 0,0 l/m 0,0 km/h (0 Bft) W 270 0 min 9,1 C 11,3 C 0,0 km/h (0 Bft)
06.06.2016 05:45 10,9 C 23,4 C 12,6 C 11,4 C 11,4 C 0,5 C 89 % 90 % 13 % 1017,6 hPa 0,0 l/m 0,0 km/h (0 Bft) W 270 0 min 9,2 C 11,4 C 0,0 km/h (0 Bft)
06.06.2016 05:50 10,8 C 23,4 C 12,7 C 11,4 C 11,4 C 0,6 C 89 % 90 % 16 % 1017,6 hPa 0,0 l/m 0,0 km/h (0 Bft) W 270 0 min 9,1 C 11,4 C 0,0 km/h (0 Bft)
06.06.2016 05:55 10,8 C 23,4 C 12,7 C 11,6 C 11,6 C 0,8 C 89 % 90 % 21 % 1017,6 hPa 0,0 l/m 0,0 km/h (0 Bft) W 270 0 min 9,1 C 11,6 C 0,0 km/h (0 Bft)
06.06.2016 06:00 10,9 C 23,4 C 12,8 C 11,7 C 11,7 C 0,8 C 89 % 90 % 21 % 1017,6 hPa 0,0 l/m 0,0 km/h (0 Bft) W 270 0 min 9,2 C 11,7 C 0,0 km/h (0 Bft)
06.06.2016 06:05 11,0 C 23,3 C 12,8 C 11,9 C 11,9 C 0,9 C 89 % 90 % 24 % 1017,8 hPa 0,0 l/m 0,0 km/h (0 Bft) S 180 0 min 9,3 C 11,9 C 0,0 km/h (0 Bft)
06.06.2016 06:10 11,0 C 23,3 C 12,9 C 11,9 C 11,9 C 0,9 C 89 % 90 % 24 % 1017,8 hPa 0,0 l/m 0,0 km/h (0 Bft) W-SW 247 0 min 9,3 C 11,9 C 0,0 km/h (0 Bft)
06.06.2016 06:15 11,2 C 23,3 C 13,0 C 12,0 C 12,0 C 0,8 C 89 % 90 % 21 % 1017,8 hPa 0,0 l/m 0,0 km/h (0 Bft) S 180 0 min 9,5 C 12,0 C 0,0 km/h (0 Bft)
06.06.2016 06:20 11,3 C 23,3 C 13,1 C 12,2 C 12,2 C 0,9 C 89 % 90 % 24 % 1017,8 hPa 0,0 l/m 0,0 km/h (0 Bft) W-SW 247 0 min 9,6 C 12,2 C 0,0 km/h (0 Bft)
06.06.2016 06:25 11,4 C 23,3 C 13,1 C 12,3 C 12,3 C 0,9 C 90 % 90 % 24 % 1017,6 hPa 0,0 l/m 0,0 km/h (0 Bft) W-SW 247 0 min 9,8 C 12,3 C 0,0 km/h (0 Bft)
06.06.2016 06:30 11,5 C 23,2 C 13,3 C 12,5 C 12,5 C 1,0 C 90 % 90 % 26 % 1017,6 hPa 0,0 l/m 0,0 km/h (0 Bft) W-NW 292 0 min 9,9 C 12,5 C 0,0 km/h (0 Bft)
06.06.2016 06:35 11,7 C 23,2 C 13,3 C 12,7 C 12,7 C 1,0 C 90 % 90 % 26 % 1017,6 hPa 0,0 l/m 0,0 km/h (0 Bft) S-SO 157 0 min 10,1 C 12,7 C 0,0 km/h (0 Bft)
06.06.2016 06:50 12,1 C 23,2 C 13,9 C 13,4 C 13,4 C 1,3 C 90 % 90 % 34 % 1017,9 hPa 0,0 l/m 0,0 km/h (0 Bft) W-SW 247 0 min 10,5 C 13,4 C 0,0 km/h (0 Bft)
06.06.2016 07:00 12,3 C 23,1 C 14,3 C 15,2 C 15,2 C 2,9 C 91 % 89 % 76 % 1017,9 hPa 0,0 l/m 0,0 km/h (0 Bft) S 180 10 min 10,9 C 15,2 C 0,0 km/h (0 Bft)
06.06.2016 07:05 12,7 C 23,1 C 14,5 C 17,8 C 17,8 C 5,1 C 91 % 89 % 100 % 1017,5 hPa 0,0 l/m 0,0 km/h (0 Bft) W 270 5 min 11,3 C 17,8 C 0,0 km/h (0 Bft)
06.06.2016 07:10 12,8 C 23,1 C 14,6 C 19,4 C 19,4 C 6,6 C 91 % 90 % 100 % 1017,5 hPa 0,0 l/m 0,0 km/h (0 Bft) S-SW 202 5 min 11,4 C 19,4 C 0,0 km/h (0 Bft)
06.06.2016 07:15 13,4 C 23,1 C 14,8 C 21,2 C 21,2 C 7,8 C 92 % 90 % 100 % 1017,5 hPa 0,0 l/m 0,2 km/h (0 Bft) S-SW 202 5 min 12,1 C 21,2 C 1,8 km/h (1 Bft)
06.06.2016 07:20 13,7 C 23,1 C 15,1 C 22,1 C 22,1 C 8,4 C 92 % 89 % 100 % 1017,5 hPa 0,0 l/m 0,2 km/h (0 Bft) S 180 5 min 12,4 C 22,1 C 0,0 km/h (0 Bft)
06.06.2016 07:25 14,3 C 23,0 C 15,3 C 23,4 C 23,4 C 9,1 C 92 % 89 % 100 % 1017,7 hPa 0,0 l/m 0,2 km/h (0 Bft) S 180 5 min 13,0 C 23,4 C 0,0 km/h (0 Bft)
06.06.2016 07:30 14,6 C 22,9 C 15,3 C 23,9 C 23,9 C 9,3 C 92 % 89 % 100 % 1017,7 hPa 0,0 l/m 0,0 km/h (0 Bft) S 180 5 min 13,3 C 23,9 C 0,0 km/h (0 Bft)
06.06.2016 07:35 15,0 C 22,9 C 15,5 C 24,9 C 24,9 C 9,9 C 93 % 89 % 100 % 1017,7 hPa 0,0 l/m 0,2 km/h (0 Bft) W-SW 247 5 min 13,9 C 24,9 C 0,0 km/h (0 Bft)
06.06.2016 07:40 15,4 C 22,9 C 15,6 C 25,2 C 25,2 C 9,8 C 93 % 89 % 100 % 1017,7 hPa 0,0 l/m 0,2 km/h (0 Bft) W-SW 247 5 min 14,3 C 25,2 C 0,0 km/h (0 Bft)
06.06.2016 07:45 16,0 C 22,9 C 15,9 C 25,8 C 25,8 C 9,8 C 92 % 89 % 100 % 1017,5 hPa 0,0 l/m 0,2 km/h (0 Bft) W-SW 247 5 min 14,7 C 25,8 C 2,3 km/h (1 Bft)
06.06.2016 07:50 16,5 C 22,9 C 15,9 C 26,4 C 26,4 C 9,9 C 92 % 88 % 100 % 1017,5 hPa 0,0 l/m 0,0 km/h (0 Bft) S-SW 202 5 min 15,2 C 26,4 C 0,0 km/h (0 Bft)
06.06.2016 07:55 16,9 C 22,9 C 16,0 C 27,3 C 27,3 C 10,4 C 91 % 88 % 100 % 1017,5 hPa 0,0 l/m 0,0 km/h (0 Bft) W 270 5 min 15,4 C 27,3 C 0,0 km/h (0 Bft)
06.06.2016 08:00 17,1 C 22,9 C 16,1 C 27,7 C 27,7 C 10,6 C 89 % 88 % 100 % 1017,5 hPa 0,0 l/m 0,0 km/h (0 Bft) SW 225 5 min 15,3 C 27,7 C 0,0 km/h (0 Bft)
06.06.2016 08:05 17,5 C 22,9 C 16,3 C 28,4 C 28,4 C 10,9 C 89 % 88 % 100 % 1017,4 hPa 0,0 l/m 0,0 km/h (0 Bft) S 180 5 min 15,7 C 28,4 C 0,0 km/h (0 Bft)
06.06.2016 08:10 17,9 C 22,9 C 16,4 C 28,7 C 28,7 C 10,8 C 87 % 88 % 100 % 1017,4 hPa 0,0 l/m 0,0 km/h (0 Bft) SO 135 5 min 15,7 C 28,7 C 0,0 km/h (0 Bft)
06.06.2016 08:15 18,1 C 22,9 C 16,6 C 29,0 C 29,0 C 10,9 C 86 % 88 % 100 % 1017,4 hPa 0,0 l/m 0,0 km/h (0 Bft) W 270 5 min 15,7 C 29,0 C 0,0 km/h (0 Bft)
06.06.2016 08:20 18,3 C 22,9 C 16,7 C 28,9 C 28,9 C 10,6 C 84 % 88 % 100 % 1017,4 hPa 0,0 l/m 0,2 km/h (0 Bft) S 180 5 min 15,5 C 28,9 C 0,0 km/h (0 Bft)
06.06.2016 08:25 18,7 C 22,9 C 16,9 C 29,4 C 29,4 C 10,7 C 83 % 88 % 100 % 1017,6 hPa 0,0 l/m 0,0 km/h (0 Bft) W-SW 247 5 min 15,8 C 29,4 C 0,0 km/h (0 Bft)
06.06.2016 08:30 19,1 C 22,9 C 16,9 C 29,9 C 29,9 C 10,8 C 81 % 88 % 100 % 1017,6 hPa 0,0 l/m 0,0 km/h (0 Bft) W 270 5 min 15,8 C 29,9 C 0,0 km/h (0 Bft)
06.06.2016 08:35 19,5 C 22,9 C 17,0 C 30,3 C 30,3 C 10,8 C 80 % 88 % 100 % 1017,6 hPa 0,0 l/m 0,0 km/h (0 Bft) W-SW 247 5 min 16,0 C 30,3 C 0,0 km/h (0 Bft)
06.06.2016 08:40 19,7 C 22,9 C 17,2 C 30,6 C 30,6 C 10,9 C 79 % 88 % 100 % 1017,6 hPa 0,0 l/m 0,0 km/h (0 Bft) W-SW 247 5 min 16,0 C 30,6 C 0,0 km/h (0 Bft)
06.06.2016 08:45 20,2 C 22,9 C 17,2 C 30,2 C 30,2 C 10,0 C 77 % 88 % 100 % 1017,5 hPa 0,0 l/m 0,3 km/h (0 Bft) SO 135 5 min 16,0 C 30,2 C 0,0 km/h (0 Bft)
06.06.2016 08:50 20,3 C 22,9 C 17,3 C 30,2 C 30,2 C 9,9 C 77 % 88 % 100 % 1017,5 hPa 0,0 l/m 0,3 km/h (0 Bft) S 180 5 min 16,1 C 30,2 C 1,6 km/h (1 Bft)
06.06.2016 08:55 20,4 C 22,8 C 17,5 C 30,1 C 30,1 C 9,7 C 76 % 88 % 100 % 1017,5 hPa 0,0 l/m 0,5 km/h (0 Bft) W-SW 247 5 min 16,0 C 30,1 C 2,6 km/h (1 Bft)
06.06.2016 09:00 20,6 C 22,8 C 17,6 C 30,5 C 30,5 C 9,9 C 76 % 88 % 100 % 1017,5 hPa 0,0 l/m 0,3 km/h (0 Bft) S-SW 202 5 min 16,2 C 30,5 C 0,0 km/h (0 Bft)
06.06.2016 09:05 21,4 C 22,8 C 17,7 C 30,9 C 30,9 C 9,5 C 75 % 88 % 100 % 1017,6 hPa 0,0 l/m 0,3 km/h (0 Bft) S 180 5 min 16,8 C 30,9 C 2,9 km/h (1 Bft)
06.06.2016 09:10 21,4 C 22,8 C 17,9 C 30,5 C 30,5 C 9,1 C 74 % 88 % 100 % 1017,6 hPa 0,0 l/m 0,5 km/h (0 Bft) W 270 5 min 16,6 C 30,5 C 0,0 km/h (0 Bft)
06.06.2016 09:15 21,6 C 22,8 C 18,0 C 30,7 C 30,7 C 9,1 C 74 % 87 % 100 % 1017,6 hPa 0,0 l/m 0,3 km/h (0 Bft) O 90 5 min 16,8 C 30,7 C 0,0 km/h (0 Bft)
06.06.2016 09:20 22,0 C 22,8 C 18,2 C 30,7 C 30,7 C 8,7 C 74 % 87 % 100 % 1017,6 hPa 0,0 l/m 0,0 km/h (0 Bft) SO 135 5 min 17,1 C 30,7 C 0,0 km/h (0 Bft)
06.06.2016 09:25 22,5 C 22,8 C 18,3 C 31,3 C 31,3 C 8,8 C 73 % 87 % 100 % 1017,6 hPa 0,0 l/m 0,0 km/h (0 Bft) O-SO 112 5 min 17,4 C 31,3 C 0,0 km/h (0 Bft)
06.06.2016 09:30 22,4 C 22,8 C 18,5 C 30,1 C 30,1 C 7,7 C 72 % 87 % 100 % 1017,6 hPa 0,0 l/m 0,6 km/h (0 Bft) O 90 5 min 17,1 C 30,1 C 0,0 km/h (0 Bft)
06.06.2016 09:35 22,1 C 22,8 C 18,7 C 30,0 C 30,0 C 7,9 C 72 % 87 % 100 % 1017,6 hPa 0,0 l/m 0,6 km/h (0 Bft) O-SO 112 5 min 16,8 C 30,0 C 3,1 km/h (1 Bft)
06.06.2016 09:55 21,2 C 22,9 C 19,1 C 27,3 C 27,3 C 6,1 C 74 % 86 % 100 % 1018,6 hPa 0,0 l/m 1,0 km/h (0 Bft) W 270 20 min 16,4 C 27,3 C 3,5 km/h (1 Bft)
06.06.2016 09:56 21,2 C 22,9 C 19,1 C 27,3 C 27,3 C 6,1 C 74 % 86 % 100 % 1018,6 hPa 0,0 l/m 1,0 km/h (0 Bft) W 270 1 min 16,4 C 27,3 C 0,0 km/h (0 Bft)
06.06.2016 09:57 21,2 C 22,9 C 19,1 C 27,3 C 27,3 C 6,1 C 74 % 86 % 100 % 1018,6 hPa 0,0 l/m 1,0 km/h (0 Bft) W 270 1 min 16,4 C 27,3 C 0,0 km/h (0 Bft)
06.06.2016 09:58 21,3 C 22,9 C 19,1 C 26,5 C 26,5 C 5,2 C 74 % 86 % 100 % 1018,6 hPa 0,0 l/m 0,5 km/h (0 Bft) O-NO 67 1 min 16,5 C 26,5 C 3,1 km/h (1 Bft)
06.06.2016 09:59 21,3 C 22,9 C 19,1 C 26,5 C 26,5 C 5,2 C 74 % 86 % 100 % 1018,6 hPa 0,0 l/m 0,5 km/h (0 Bft) O-NO 67 1 min 16,5 C 26,5 C 3,1 km/h (1 Bft)
06.06.2016 10:01 21,3 C 22,9 C 19,1 C 26,5 C 26,5 C 5,2 C 74 % 86 % 100 % 1018,6 hPa 0,0 l/m 0,5 km/h (0 Bft) O-NO 67 2 min 16,5 C 26,5 C 3,1 km/h (1 Bft)
06.06.2016 10:10 21,2 C 22,8 C 19,7 C 27,7 C 27,7 C 6,5 C 74 % 85 % 100 % 1018,4 hPa 0,0 l/m 2,3 km/h (1 Bft) NW 315 9 min 16,4 C 27,7 C 4,7 km/h (1 Bft)
06.06.2016 10:15 21,3 C 22,8 C 19,8 C 29,4 C 29,4 C 8,1 C 74 % 84 % 100 % 1018,4 hPa 0,0 l/m 0,8 km/h (0 Bft) SW 225 5 min 16,5 C 29,4 C 2,3 km/h (1 Bft)
06.06.2016 10:20 21,5 C 22,8 C 19,9 C 29,2 C 29,2 C 7,7 C 73 % 84 % 100 % 1018,4 hPa 0,0 l/m 1,6 km/h (1 Bft) O-SO 112 5 min 16,4 C 29,2 C 2,4 km/h (1 Bft)
06.06.2016 10:25 21,4 C 22,8 C 19,9 C 28,2 C 28,2 C 6,8 C 72 % 84 % 100 % 1018,5 hPa 0,0 l/m 3,1 km/h (1 Bft) NO 45 5 min 16,1 C 28,2 C 5,0 km/h (1 Bft)
06.06.2016 10:30 21,4 C 22,8 C 20,0 C 28,1 C 28,1 C 6,7 C 72 % 83 % 100 % 1018,5 hPa 0,0 l/m 2,9 km/h (1 Bft) NO 45 5 min 16,1 C 28,1 C 4,5 km/h (1 Bft)
06.06.2016 10:35 21,9 C 22,8 C 20,2 C 28,3 C 28,3 C 6,4 C 72 % 82 % 100 % 1018,5 hPa 0,0 l/m 2,3 km/h (1 Bft) O-NO 67 5 min 16,6 C 28,3 C 2,4 km/h (1 Bft)
06.06.2016 10:40 22,1 C 22,8 C 20,3 C 28,7 C 28,7 C 6,6 C 72 % 82 % 100 % 1018,5 hPa 0,0 l/m 1,9 km/h (1 Bft) W 270 5 min 16,8 C 28,7 C 2,9 km/h (1 Bft)
06.06.2016 10:45 22,2 C 22,8 C 20,4 C 29,3 C 29,3 C 7,1 C 72 % 82 % 100 % 1018,8 hPa 0,0 l/m 2,1 km/h (1 Bft) N-NW 337 5 min 16,9 C 29,3 C 2,4 km/h (1 Bft)
06.06.2016 10:50 22,2 C 22,8 C 20,5 C 29,6 C 29,6 C 7,4 C 72 % 81 % 100 % 1018,8 hPa 0,0 l/m 1,9 km/h (1 Bft) O 90 5 min 16,9 C 29,6 C 2,7 km/h (1 Bft)
06.06.2016 10:55 22,2 C 22,8 C 20,6 C 29,1 C 29,1 C 6,9 C 71 % 81 % 100 % 1018,8 hPa 0,0 l/m 1,6 km/h (1 Bft) O-NO 67 5 min 16,7 C 29,1 C 6,1 km/h (2 Bft)
06.06.2016 11:00 22,3 C 22,8 C 20,7 C 29,0 C 29,0 C 6,7 C 71 % 80 % 100 % 1018,8 hPa 0,0 l/m 2,1 km/h (1 Bft) O-NO 67 5 min 16,8 C 29,0 C 2,9 km/h (1 Bft)
06.06.2016 11:05 22,3 C 22,9 C 20,6 C 28,4 C 28,4 C 6,1 C 70 % 79 % 100 % 1018,8 hPa 0,0 l/m 3,1 km/h (1 Bft) O 90 5 min 16,6 C 28,4 C 8,7 km/h (2 Bft)
06.06.2016 11:10 22,3 C 22,9 C 20,9 C 27,9 C 27,9 C 5,6 C 71 % 78 % 100 % 1018,8 hPa 0,0 l/m 3,4 km/h (1 Bft) SO 135 5 min 16,8 C 27,9 C 2,7 km/h (1 Bft)
06.06.2016 11:15 22,5 C 22,9 C 21,0 C 28,3 C 28,3 C 5,8 C 72 % 78 % 100 % 1018,8 hPa 0,0 l/m 1,8 km/h (1 Bft) N-NO 22 5 min 17,2 C 28,3 C 0,0 km/h (0 Bft)
06.06.2016 11:20 22,7 C 22,9 C 21,1 C 28,9 C 28,9 C 6,2 C 71 % 79 % 100 % 1018,8 hPa 0,0 l/m 1,6 km/h (1 Bft) O-SO 112 5 min 17,2 C 28,9 C 2,9 km/h (1 Bft)
06.06.2016 11:25 22,7 C 22,9 C 21,1 C 29,4 C 29,4 C 6,7 C 72 % 79 % 100 % 1019,2 hPa 0,0 l/m 1,4 km/h (1 Bft) W-SW 247 5 min 17,4 C 29,4 C 2,4 km/h (1 Bft)
06.06.2016 11:30 22,7 C 22,9 C 21,2 C 29,6 C 29,6 C 6,9 C 72 % 79 % 100 % 1019,2 hPa 0,0 l/m 1,9 km/h (1 Bft) NW 315 5 min 17,4 C 29,6 C 2,9 km/h (1 Bft)
06.06.2016 11:35 23,0 C 22,9 C 21,6 C 29,9 C 29,9 C 6,9 C 72 % 79 % 100 % 1019,2 hPa 0,0 l/m 2,6 km/h (1 Bft) O-SO 112 5 min 17,7 C 29,9 C 2,1 km/h (1 Bft)
06.06.2016 11:45 23,2 C 23,0 C 21,9 C 30,2 C 30,2 C 7,0 C 72 % 79 % 100 % 1019,4 hPa 0,0 l/m 2,3 km/h (1 Bft) N-NO 22 10 min 17,9 C 30,2 C 3,2 km/h (1 Bft)
06.06.2016 11:50 23,3 C 23,0 C 22,0 C 30,4 C 30,4 C 7,1 C 72 % 79 % 100 % 1019,4 hPa 0,0 l/m 2,7 km/h (1 Bft) NO 45 5 min 18,0 C 30,4 C 1,6 km/h (1 Bft)
06.06.2016 11:55 23,6 C 22,9 C 22,3 C 31,1 C 31,1 C 7,5 C 72 % 77 % 100 % 1019,4 hPa 0,0 l/m 2,1 km/h (1 Bft) O-NO 67 5 min 18,2 C 31,1 C 3,2 km/h (1 Bft)
06.06.2016 12:00 23,6 C 22,9 C 22,2 C 31,0 C 31,0 C 7,4 C 71 % 78 % 100 % 1019,4 hPa 0,0 l/m 1,8 km/h (1 Bft) NO 45 5 min 18,0 C 31,0 C 2,7 km/h (1 Bft)
06.06.2016 12:05 23,5 C 23,0 C 22,1 C 28,7 C 28,7 C 5,2 C 71 % 78 % 100 % 1019,4 hPa 0,0 l/m 2,6 km/h (1 Bft) W-NW 292 5 min 17,9 C 28,7 C 0,0 km/h (0 Bft)
06.06.2016 12:10 23,3 C 23,0 C 22,3 C 28,8 C 28,8 C 5,5 C 72 % 78 % 100 % 1019,4 hPa 0,0 l/m 3,2 km/h (1 Bft) S 180 5 min 18,0 C 28,8 C 1,8 km/h (1 Bft)
06.06.2016 12:15 23,6 C 23,0 C 22,7 C 29,5 C 29,5 C 5,9 C 72 % 78 % 100 % 1019,4 hPa 0,0 l/m 3,4 km/h (1 Bft) O 90 5 min 18,2 C 29,5 C 8,9 km/h (2 Bft)
06.06.2016 12:20 23,6 C 23,0 C 22,5 C 28,9 C 28,9 C 5,3 C 72 % 78 % 100 % 1019,4 hPa 0,0 l/m 3,2 km/h (1 Bft) O-NO 67 5 min 18,2 C 28,9 C 3,1 km/h (1 Bft)
06.06.2016 12:25 23,9 C 23,0 C 22,5 C 29,6 C 29,6 C 5,7 C 71 % 77 % 100 % 1019,2 hPa 0,0 l/m 2,4 km/h (1 Bft) O-NO 67 5 min 18,3 C 29,6 C 1,6 km/h (1 Bft)
06.06.2016 12:30 24,1 C 23,0 C 22,5 C 29,9 C 29,9 C 5,8 C 70 % 77 % 100 % 1019,2 hPa 0,0 l/m 2,1 km/h (1 Bft) O-NO 67 5 min 18,3 C 29,9 C 7,1 km/h (2 Bft)
06.06.2016 12:35 23,9 C 23,0 C 22,3 C 28,9 C 28,9 C 5,0 C 71 % 77 % 100 % 1019,2 hPa 0,0 l/m 2,4 km/h (1 Bft) O-SO 112 5 min 18,3 C 28,9 C 1,8 km/h (1 Bft)
06.06.2016 12:45 24,3 C 23,0 C 22,6 C 29,4 C 29,4 C 5,1 C 71 % 77 % 100 % 1019,4 hPa 0,0 l/m 2,3 km/h (1 Bft) O-SO 112 10 min 18,7 C 29,4 C 2,6 km/h (1 Bft)
06.06.2016 12:50 24,5 C 23,0 C 22,6 C 29,8 C 29,8 C 5,3 C 70 % 77 % 100 % 1019,4 hPa 0,0 l/m 2,1 km/h (1 Bft) O-NO 67 5 min 18,7 C 29,8 C 2,1 km/h (1 Bft)
06.06.2016 12:55 24,7 C 23,1 C 22,7 C 29,9 C 29,9 C 5,2 C 69 % 76 % 100 % 1019,4 hPa 0,0 l/m 2,3 km/h (1 Bft) O-NO 67 5 min 18,6 C 29,9 C 5,5 km/h (1 Bft)
06.06.2016 13:05 24,7 C 23,1 C 22,7 C 29,8 C 29,8 C 5,1 C 66 % 74 % 100 % 1019,2 hPa 0,0 l/m 3,1 km/h (1 Bft) O 90 10 min 17,9 C 29,8 C 3,4 km/h (1 Bft)
06.06.2016 13:10 24,1 C 23,1 C 22,5 C 29,0 C 29,0 C 4,9 C 67 % 74 % 100 % 1019,2 hPa 0,0 l/m 3,9 km/h (1 Bft) O 90 5 min 17,6 C 29,0 C 5,5 km/h (1 Bft)
06.06.2016 13:15 23,9 C 23,1 C 22,5 C 28,4 C 28,4 C 4,5 C 68 % 76 % 100 % 1019,2 hPa 0,0 l/m 4,8 km/h (1 Bft) N-NW 337 5 min 17,6 C 28,4 C 5,3 km/h (1 Bft)
06.06.2016 13:20 24,3 C 23,1 C 22,7 C 28,9 C 28,9 C 4,6 C 68 % 74 % 100 % 1019,2 hPa 0,0 l/m 3,5 km/h (1 Bft) O-SO 112 5 min 18,0 C 28,9 C 1,9 km/h (1 Bft)
06.06.2016 13:25 24,7 C 23,1 C 22,8 C 29,6 C 29,6 C 4,9 C 67 % 73 % 100 % 1019,1 hPa 0,0 l/m 2,1 km/h (1 Bft) S-SO 157 5 min 18,1 C 29,6 C 1,8 km/h (1 Bft)
06.06.2016 13:30 24,8 C 23,2 C 22,9 C 29,8 C 29,8 C 5,0 C 66 % 74 % 100 % 1019,1 hPa 0,0 l/m 2,6 km/h (1 Bft) O 90 5 min 18,0 C 29,8 C 3,1 km/h (1 Bft)
06.06.2016 13:35 24,7 C 23,2 C 23,1 C 29,8 C 29,8 C 5,1 C 65 % 73 % 100 % 1019,1 hPa 0,0 l/m 2,9 km/h (1 Bft) O-NO 67 5 min 17,7 C 29,8 C 10,6 km/h (2 Bft)
06.06.2016 13:40 24,5 C 23,2 C 23,1 C 29,4 C 29,4 C 4,9 C 65 % 73 % 100 % 1019,1 hPa 0,0 l/m 3,9 km/h (1 Bft) O 90 5 min 17,5 C 29,4 C 8,0 km/h (2 Bft)
06.06.2016 13:45 24,4 C 23,2 C 23,3 C 29,4 C 29,4 C 5,0 C 66 % 72 % 100 % 1019,1 hPa 0,0 l/m 5,1 km/h (1 Bft) O-SO 112 5 min 17,6 C 29,4 C 5,1 km/h (1 Bft)
06.06.2016 13:50 24,6 C 23,2 C 23,6 C 29,9 C 29,9 C 5,3 C 67 % 72 % 100 % 1019,1 hPa 0,0 l/m 3,4 km/h (1 Bft) O-NO 67 5 min 18,1 C 29,9 C 3,2 km/h (1 Bft)
06.06.2016 13:55 24,8 C 23,2 C 23,9 C 30,2 C 30,2 C 5,4 C 64 % 72 % 100 % 1019,1 hPa 0,0 l/m 3,1 km/h (1 Bft) O-NO 67 5 min 17,5 C 30,2 C 4,8 km/h (1 Bft)
06.06.2016 14:00 24,6 C 23,2 C 23,9 C 29,9 C 29,9 C 5,3 C 65 % 70 % 100 % 1019,1 hPa 0,0 l/m 3,5 km/h (1 Bft) N-NO 22 5 min 17,6 C 29,9 C 2,3 km/h (1 Bft)
06.06.2016 14:05 24,7 C 23,3 C 23,7 C 30,3 C 30,3 C 5,6 C 63 % 69 % 100 % 1018,9 hPa 0,0 l/m 3,9 km/h (1 Bft) NO 45 5 min 17,2 C 30,3 C 5,1 km/h (1 Bft)
06.06.2016 14:10 24,3 C 23,3 C 23,5 C 29,6 C 29,6 C 5,3 C 63 % 70 % 100 % 1018,9 hPa 0,0 l/m 5,3 km/h (1 Bft) O 90 5 min 16,8 C 29,6 C 8,4 km/h (2 Bft)
06.06.2016 14:15 24,3 C 23,3 C 23,5 C 29,3 C 29,3 C 5,0 C 66 % 71 % 100 % 1018,9 hPa 0,0 l/m 6,0 km/h (2 Bft) NO 45 5 min 17,5 C 29,3 C 11,3 km/h (2 Bft)
06.06.2016 14:20 24,3 C 23,3 C 23,4 C 28,8 C 28,8 C 4,5 C 67 % 71 % 100 % 1018,9 hPa 0,0 l/m 4,0 km/h (1 Bft) O-NO 67 5 min 17,8 C 28,8 C 0,0 km/h (0 Bft)
06.06.2016 14:25 24,2 C 23,3 C 23,1 C 27,5 C 27,5 C 3,3 C 66 % 71 % 87 % 1019,0 hPa 0,0 l/m 1,9 km/h (1 Bft) N-NO 22 5 min 17,4 C 27,5 C 3,4 km/h (1 Bft)
06.06.2016 14:30 24,5 C 23,3 C 23,5 C 28,3 C 28,3 C 3,8 C 66 % 70 % 100 % 1019,0 hPa 0,0 l/m 1,6 km/h (1 Bft) N-NO 22 5 min 17,7 C 28,3 C 1,9 km/h (1 Bft)
06.06.2016 14:35 24,2 C 23,3 C 23,4 C 28,4 C 28,4 C 4,2 C 64 % 68 % 100 % 1019,0 hPa 0,0 l/m 3,2 km/h (1 Bft) O-NO 67 5 min 16,9 C 28,4 C 11,4 km/h (2 Bft)
06.06.2016 14:40 24,3 C 23,4 C 23,5 C 28,9 C 28,9 C 4,6 C 65 % 70 % 100 % 1019,0 hPa 0,0 l/m 3,9 km/h (1 Bft) O-NO 67 5 min 17,3 C 28,9 C 5,0 km/h (1 Bft)
06.06.2016 14:45 24,1 C 23,4 C 23,2 C 27,7 C 27,7 C 3,6 C 64 % 69 % 95 % 1019,1 hPa 0,0 l/m 3,5 km/h (1 Bft) O 90 5 min 16,9 C 27,7 C 5,8 km/h (2 Bft)
06.06.2016 14:50 24,0 C 23,4 C 23,3 C 27,8 C 27,8 C 3,8 C 66 % 70 % 100 % 1019,1 hPa 0,0 l/m 3,5 km/h (1 Bft) O 90 5 min 17,2 C 27,8 C 2,1 km/h (1 Bft)
06.06.2016 14:55 24,7 C 23,4 C 23,6 C 29,7 C 29,7 C 5,0 C 64 % 70 % 100 % 1019,1 hPa 0,0 l/m 2,7 km/h (1 Bft) O-NO 67 5 min 17,4 C 29,7 C 2,1 km/h (1 Bft)
06.06.2016 15:00 25,1 C 23,4 C 23,9 C 30,8 C 30,8 C 5,7 C 63 % 69 % 100 % 1019,1 hPa 0,0 l/m 2,1 km/h (1 Bft) O-NO 67 5 min 17,5 C 30,8 C 6,0 km/h (2 Bft)
06.06.2016 15:05 24,9 C 23,4 C 23,7 C 30,6 C 30,6 C 5,7 C 62 % 67 % 100 % 1019,1 hPa 0,0 l/m 2,9 km/h (1 Bft) O 90 5 min 17,1 C 30,6 C 3,1 km/h (1 Bft)
06.06.2016 15:10 24,6 C 23,4 C 23,7 C 29,8 C 29,8 C 5,2 C 62 % 67 % 100 % 1019,1 hPa 0,0 l/m 3,9 km/h (1 Bft) O-NO 67 5 min 16,8 C 29,8 C 3,2 km/h (1 Bft)
06.06.2016 15:15 24,5 C 23,4 C 23,6 C 29,8 C 29,8 C 5,3 C 60 % 65 % 100 % 1019,1 hPa 0,0 l/m 4,0 km/h (1 Bft) SO 135 5 min 16,2 C 29,8 C 5,8 km/h (2 Bft)
06.06.2016 15:20 24,4 C 23,4 C 23,6 C 29,2 C 29,2 C 4,8 C 60 % 66 % 100 % 1019,1 hPa 0,0 l/m 4,3 km/h (1 Bft) O-NO 67 5 min 16,1 C 29,2 C 10,9 km/h (2 Bft)
06.06.2016 15:25 24,4 C 23,5 C 23,7 C 29,1 C 29,1 C 4,7 C 62 % 67 % 100 % 1019,0 hPa 0,0 l/m 4,5 km/h (1 Bft) O-NO 67 5 min 16,6 C 29,1 C 5,3 km/h (1 Bft)
06.06.2016 15:30 24,3 C 23,5 C 23,7 C 28,9 C 28,9 C 4,6 C 60 % 66 % 100 % 1019,0 hPa 0,0 l/m 5,5 km/h (1 Bft) O 90 5 min 16,0 C 28,9 C 8,7 km/h (2 Bft)
06.06.2016 15:35 24,1 C 23,5 C 23,6 C 28,2 C 28,2 C 4,1 C 60 % 65 % 100 % 1019,0 hPa 0,0 l/m 6,9 km/h (2 Bft) O-NO 67 5 min 15,8 C 28,2 C 13,7 km/h (3 Bft)
06.06.2016 15:59 23,9 C 23,5 C 23,9 C 28,1 C 28,1 C 4,2 C 57 % 61 % 100 % 1019,0 hPa 0,0 l/m 6,4 km/h (2 Bft) O 90 24 min 14,9 C 28,1 C 15,1 km/h (3 Bft)
06.06.2016 16:00 23,9 C 23,5 C 23,9 C 28,1 C 28,1 C 4,2 C 57 % 61 % 100 % 1019,0 hPa 0,0 l/m 6,4 km/h (2 Bft) O 90 1 min 14,9 C 28,1 C 8,9 km/h (2 Bft)
06.06.2016 16:01 23,9 C 23,5 C 23,9 C 28,1 C 28,1 C 4,2 C 57 % 61 % 100 % 1019,0 hPa 0,0 l/m 6,4 km/h (2 Bft) O 90 1 min 14,9 C 28,1 C 8,9 km/h (2 Bft)
06.06.2016 16:02 23,9 C 23,5 C 23,9 C 28,1 C 28,1 C 4,2 C 57 % 61 % 100 % 1019,0 hPa 0,0 l/m 6,4 km/h (2 Bft) O 90 1 min 14,9 C 28,1 C 8,9 km/h (2 Bft)
06.06.2016 16:03 23,9 C 23,5 C 24,3 C 28,0 C 28,0 C 4,1 C 58 % 61 % 100 % 1019,2 hPa 0,0 l/m 6,0 km/h (2 Bft) SO 135 1 min 15,1 C 28,0 C 4,3 km/h (1 Bft)
06.06.2016 16:05 23,9 C 23,5 C 24,3 C 28,0 C 28,0 C 4,1 C 58 % 61 % 100 % 1019,2 hPa 0,0 l/m 6,0 km/h (2 Bft) SO 135 2 min 15,1 C 28,0 C 4,3 km/h (1 Bft)
06.06.2016 16:16 24,0 C 23,5 C 24,8 C 28,5 C 28,5 C 4,5 C 56 % 58 % 100 % 1019,2 hPa 0,0 l/m 4,7 km/h (1 Bft) O-NO 67 11 min 14,7 C 28,5 C 6,9 km/h (2 Bft)
06.06.2016 16:17 24,0 C 23,5 C 24,8 C 28,5 C 28,5 C 4,5 C 56 % 58 % 100 % 1019,2 hPa 0,0 l/m 4,7 km/h (1 Bft) O-NO 67 1 min 14,7 C 28,5 C 6,9 km/h (2 Bft)
06.06.2016 16:18 23,9 C 23,5 C 25,3 C 28,3 C 28,3 C 4,4 C 57 % 59 % 100 % 1019,2 hPa 0,0 l/m 5,5 km/h (1 Bft) O-NO 67 1 min 14,9 C 28,3 C 6,1 km/h (2 Bft)
06.06.2016 16:19 23,9 C 23,5 C 25,3 C 28,3 C 28,3 C 4,4 C 57 % 59 % 100 % 1019,2 hPa 0,0 l/m 5,5 km/h (1 Bft) O-NO 67 1 min 14,9 C 28,3 C 6,1 km/h (2 Bft)
06.06.2016 16:20 23,9 C 23,5 C 25,3 C 28,3 C 28,3 C 4,4 C 57 % 59 % 100 % 1019,2 hPa 0,0 l/m 5,5 km/h (1 Bft) O-NO 67 1 min 14,9 C 28,3 C 6,1 km/h (2 Bft)
06.06.2016 16:22 24,0 C 23,5 C 26,1 C 28,5 C 28,5 C 4,5 C 57 % 57 % 100 % 1019,1 hPa 0,0 l/m 5,0 km/h (1 Bft) SO 135 2 min 14,9 C 28,5 C 7,4 km/h (2 Bft)
06.06.2016 16:27 23,9 C 23,5 C 26,3 C 28,5 C 28,5 C 4,6 C 56 % 54 % 100 % 1019,1 hPa 0,0 l/m 5,1 km/h (1 Bft) O-NO 67 5 min 14,6 C 28,5 C 10,8 km/h (2 Bft)
06.06.2016 16:32 23,8 C 23,5 C 26,1 C 28,0 C 28,0 C 4,2 C 53 % 51 % 100 % 1019,1 hPa 0,0 l/m 7,1 km/h (2 Bft) O 90 5 min 13,6 C 28,0 C 12,1 km/h (2 Bft)
06.06.2016 16:37 23,6 C 23,5 C 26,0 C 27,5 C 27,5 C 3,9 C 54 % 52 % 100 % 1019,1 hPa 0,0 l/m 7,7 km/h (2 Bft) O-SO 112 5 min 13,7 C 27,5 C 6,6 km/h (2 Bft)
06.06.2016 16:42 23,6 C 23,6 C 26,3 C 27,2 C 27,2 C 3,6 C 54 % 51 % 95 % 1019,3 hPa 0,0 l/m 8,0 km/h (2 Bft) O-NO 67 5 min 13,7 C 27,2 C 10,0 km/h (2 Bft)
06.06.2016 16:47 23,6 C 23,6 C 26,7 C 27,3 C 27,3 C 3,7 C 55 % 52 % 97 % 1019,3 hPa 0,0 l/m 6,9 km/h (2 Bft) O-NO 67 5 min 14,0 C 27,3 C 9,8 km/h (2 Bft)
06.06.2016 16:52 23,7 C 23,6 C 26,8 C 27,7 C 27,7 C 4,0 C 54 % 51 % 100 % 1019,3 hPa 0,0 l/m 5,8 km/h (2 Bft) O-NO 67 5 min 13,8 C 27,7 C 7,1 km/h (2 Bft)
06.06.2016 16:56 23,7 C 23,6 C 26,8 C 27,7 C 27,7 C 4,0 C 54 % 51 % 100 % 1019,3 hPa 0,0 l/m 5,8 km/h (2 Bft) O-NO 67 4 min 13,8 C 27,7 C 7,1 km/h (2 Bft)
06.06.2016 17:00 23,7 C 23,6 C 26,6 C 27,8 C 27,8 C 4,1 C 54 % 51 % 100 % 1019,3 hPa 0,0 l/m 6,0 km/h (2 Bft) O-SO 112 4 min 13,8 C 27,8 C 7,2 km/h (2 Bft)
06.06.2016 17:10 23,7 C 23,6 C 26,6 C 27,8 C 27,8 C 4,1 C 54 % 50 % 100 % 1019,2 hPa 0,0 l/m 6,0 km/h (2 Bft) O-NO 67 10 min 13,8 C 27,8 C 6,1 km/h (2 Bft)
06.06.2016 17:15 23,7 C 23,6 C 26,9 C 27,7 C 27,7 C 4,0 C 53 % 49 % 100 % 1019,2 hPa 0,0 l/m 6,1 km/h (2 Bft) O-NO 67 5 min 13,5 C 27,7 C 4,0 km/h (1 Bft)
06.06.2016 17:20 23,6 C 23,6 C 26,9 C 27,8 C 27,8 C 4,2 C 53 % 48 % 100 % 1019,2 hPa 0,0 l/m 5,3 km/h (1 Bft) O-NO 67 5 min 13,4 C 27,8 C 6,3 km/h (2 Bft)
06.06.2016 17:25 23,5 C 23,7 C 27,1 C 27,7 C 27,7 C 4,2 C 53 % 48 % 100 % 1019,2 hPa 0,0 l/m 5,3 km/h (1 Bft) O-NO 67 5 min 13,4 C 27,7 C 3,4 km/h (1 Bft)
06.06.2016 17:30 23,5 C 23,7 C 27,1 C 27,9 C 27,9 C 4,4 C 54 % 49 % 100 % 1019,2 hPa 0,0 l/m 4,7 km/h (1 Bft) O 90 5 min 13,6 C 27,9 C 4,3 km/h (1 Bft)
06.06.2016 17:35 23,4 C 23,7 C 26,9 C 27,8 C 27,8 C 4,4 C 53 % 48 % 100 % 1019,2 hPa 0,0 l/m 4,8 km/h (1 Bft) O-SO 112 5 min 13,3 C 27,8 C 5,1 km/h (1 Bft)
06.06.2016 17:40 23,4 C 23,7 C 26,7 C 27,9 C 27,9 C 4,5 C 52 % 47 % 100 % 1019,2 hPa 0,0 l/m 5,1 km/h (1 Bft) O-NO 67 5 min 13,0 C 27,9 C 6,8 km/h (2 Bft)
06.06.2016 17:45 23,5 C 23,7 C 25,8 C 28,2 C 28,2 C 4,7 C 52 % 49 % 100 % 1019,2 hPa 0,0 l/m 4,0 km/h (1 Bft) O-NO 67 5 min 13,1 C 28,2 C 6,1 km/h (2 Bft)
06.06.2016 17:50 23,5 C 23,7 C 26,0 C 28,2 C 28,2 C 4,7 C 51 % 48 % 100 % 1019,2 hPa 0,0 l/m 4,8 km/h (1 Bft) O-NO 67 5 min 12,8 C 28,2 C 7,9 km/h (2 Bft)
06.06.2016 17:55 23,5 C 23,7 C 25,3 C 27,6 C 27,6 C 4,1 C 51 % 49 % 100 % 1019,2 hPa 0,0 l/m 5,8 km/h (2 Bft) O-SO 112 5 min 12,8 C 27,6 C 6,1 km/h (2 Bft)
06.06.2016 18:00 23,4 C 23,7 C 24,5 C 27,5 C 27,5 C 4,1 C 50 % 49 % 100 % 1019,2 hPa 0,0 l/m 5,8 km/h (2 Bft) O-NO 67 5 min 12,4 C 27,5 C 5,5 km/h (1 Bft)
06.06.2016 18:05 23,4 C 23,7 C 24,1 C 27,4 C 27,4 C 4,0 C 49 % 50 % 100 % 1019,1 hPa 0,0 l/m 5,6 km/h (1 Bft) O-NO 67 5 min 12,1 C 27,4 C 8,2 km/h (2 Bft)
06.06.2016 18:10 23,4 C 23,7 C 23,9 C 27,1 C 27,1 C 3,7 C 49 % 50 % 97 % 1019,1 hPa 0,0 l/m 6,3 km/h (2 Bft) O-NO 67 5 min 12,1 C 27,1 C 6,0 km/h (2 Bft)
06.06.2016 18:15 23,5 C 23,7 C 23,7 C 27,3 C 27,3 C 3,8 C 49 % 51 % 100 % 1019,1 hPa 0,0 l/m 6,1 km/h (2 Bft) O-NO 67 5 min 12,2 C 27,3 C 7,6 km/h (2 Bft)
06.06.2016 18:20 23,4 C 23,7 C 23,4 C 27,2 C 27,2 C 3,8 C 49 % 52 % 100 % 1019,1 hPa 0,0 l/m 5,1 km/h (1 Bft) W-NW 292 5 min 12,1 C 27,2 C 5,0 km/h (1 Bft)
06.06.2016 18:25 23,4 C 23,7 C 23,3 C 27,3 C 27,3 C 3,9 C 49 % 52 % 100 % 1019,4 hPa 0,0 l/m 5,1 km/h (1 Bft) O-NO 67 5 min 12,1 C 27,3 C 6,3 km/h (2 Bft)
06.06.2016 18:30 23,3 C 23,7 C 23,2 C 27,4 C 27,4 C 4,1 C 48 % 52 % 100 % 1019,4 hPa 0,0 l/m 5,0 km/h (1 Bft) O-NO 67 5 min 11,7 C 27,4 C 5,1 km/h (1 Bft)
06.06.2016 18:35 23,3 C 23,7 C 23,1 C 27,3 C 27,3 C 4,0 C 48 % 51 % 100 % 1019,4 hPa 0,0 l/m 5,1 km/h (1 Bft) O-NO 67 5 min 11,7 C 27,3 C 7,6 km/h (2 Bft)
06.06.2016 18:46 23,3 C 23,7 C 22,9 C 27,0 C 27,0 C 3,7 C 49 % 52 % 97 % 1019,2 hPa 0,0 l/m 5,0 km/h (1 Bft) N 0 11 min 12,0 C 27,0 C 4,7 km/h (1 Bft)
06.06.2016 19:00 23,1 C 23,7 C 22,8 C 27,0 C 27,0 C 3,9 C 49 % 53 % 100 % 1019,2 hPa 0,0 l/m 4,8 km/h (1 Bft) O-NO 67 14 min 11,8 C 27,0 C 5,1 km/h (1 Bft)
06.06.2016 19:05 23,1 C 23,7 C 22,6 C 27,0 C 27,0 C 3,9 C 50 % 54 % 100 % 1019,5 hPa 0,0 l/m 4,2 km/h (1 Bft) O-SO 112 5 min 12,1 C 27,0 C 4,0 km/h (1 Bft)
06.06.2016 19:10 23,1 C 23,7 C 22,6 C 27,1 C 27,1 C 4,0 C 50 % 53 % 100 % 1019,5 hPa 0,0 l/m 3,7 km/h (1 Bft) SO 135 5 min 12,1 C 27,1 C 3,2 km/h (1 Bft)
06.06.2016 19:15 23,0 C 23,7 C 22,5 C 27,1 C 27,1 C 4,1 C 50 % 54 % 100 % 1019,5 hPa 0,0 l/m 3,7 km/h (1 Bft) O-NO 67 5 min 12,0 C 27,1 C 5,5 km/h (1 Bft)
06.06.2016 19:20 23,1 C 23,7 C 22,5 C 26,9 C 26,9 C 3,8 C 49 % 53 % 100 % 1019,5 hPa 0,0 l/m 4,3 km/h (1 Bft) O-NO 67 5 min 11,8 C 26,9 C 5,5 km/h (1 Bft)
06.06.2016 19:25 23,0 C 23,7 C 22,4 C 26,5 C 26,5 C 3,5 C 50 % 54 % 92 % 1019,5 hPa 0,0 l/m 4,7 km/h (1 Bft) O-NO 67 5 min 12,0 C 26,5 C 2,7 km/h (1 Bft)
06.06.2016 19:30 22,9 C 23,7 C 22,4 C 26,6 C 26,6 C 3,7 C 50 % 54 % 97 % 1019,5 hPa 0,0 l/m 4,0 km/h (1 Bft) O 90 5 min 11,9 C 26,6 C 3,5 km/h (1 Bft)
06.06.2016 19:35 22,8 C 23,7 C 22,3 C 26,4 C 26,4 C 3,6 C 51 % 55 % 95 % 1019,5 hPa 0,0 l/m 3,5 km/h (1 Bft) O-NO 67 5 min 12,1 C 26,4 C 3,4 km/h (1 Bft)
06.06.2016 19:40 22,8 C 23,7 C 22,3 C 26,3 C 26,3 C 3,5 C 52 % 56 % 92 % 1019,5 hPa 0,0 l/m 3,5 km/h (1 Bft) O-NO 67 5 min 12,4 C 26,3 C 2,7 km/h (1 Bft)
06.06.2016 19:45 22,6 C 23,7 C 22,1 C 26,4 C 26,4 C 3,8 C 53 % 59 % 100 % 1019,4 hPa 0,0 l/m 2,3 km/h (1 Bft) O 90 5 min 12,5 C 26,4 C 2,1 km/h (1 Bft)
06.06.2016 19:50 22,6 C 23,7 C 21,9 C 26,6 C 26,6 C 4,0 C 53 % 60 % 100 % 1019,4 hPa 0,0 l/m 1,9 km/h (1 Bft) O-NO 67 5 min 12,5 C 26,6 C 2,7 km/h (1 Bft)
06.06.2016 19:55 22,5 C 23,7 C 21,7 C 26,5 C 26,5 C 4,0 C 53 % 61 % 100 % 1019,4 hPa 0,0 l/m 1,9 km/h (1 Bft) O-NO 67 5 min 12,4 C 26,5 C 6,0 km/h (2 Bft)
06.06.2016 20:00 22,5 C 23,7 C 21,7 C 26,3 C 26,3 C 3,8 C 54 % 61 % 100 % 1019,4 hPa 0,0 l/m 2,4 km/h (1 Bft) O-NO 67 5 min 12,7 C 26,3 C 2,7 km/h (1 Bft)
06.06.2016 20:05 22,3 C 23,7 C 21,5 C 25,2 C 25,2 C 2,9 C 55 % 63 % 76 % 1019,6 hPa 0,0 l/m 2,1 km/h (1 Bft) O-NO 67 5 min 12,8 C 25,2 C 2,3 km/h (1 Bft)
06.06.2016 20:10 22,1 C 23,7 C 21,3 C 23,8 C 23,8 C 1,7 C 56 % 64 % 45 % 1019,6 hPa 0,0 l/m 1,3 km/h (1 Bft) NO 45 5 min 12,9 C 23,8 C 2,4 km/h (1 Bft)
06.06.2016 20:15 22,0 C 23,7 C 20,9 C 22,7 C 22,7 C 0,7 C 56 % 65 % 18 % 1019,6 hPa 0,0 l/m 1,3 km/h (1 Bft) O-NO 67 0 min 12,8 C 22,7 C 0,0 km/h (0 Bft)
06.06.2016 20:20 21,9 C 23,7 C 20,8 C 22,2 C 22,2 C 0,3 C 57 % 66 % 8 % 1019,6 hPa 0,0 l/m 1,0 km/h (0 Bft) O-NO 67 0 min 13,0 C 22,2 C 0,0 km/h (0 Bft)
06.06.2016 20:25 21,7 C 23,7 C 20,5 C 21,7 C 21,6 C 0,0 C 57 % 66 % 0 % 1019,8 hPa 0,0 l/m 0,5 km/h (0 Bft) O-NO 67 0 min 12,8 C 21,6 C 1,9 km/h (1 Bft)
06.06.2016 20:30 21,7 C 23,7 C 20,5 C 21,6 C 21,4 C 0,0 C 57 % 66 % 0 % 1019,8 hPa 0,0 l/m 0,6 km/h (0 Bft) O-NO 67 0 min 12,8 C 21,4 C 0,0 km/h (0 Bft)
06.06.2016 20:35 21,5 C 23,7 C 20,3 C 21,4 C 21,1 C 0,0 C 58 % 68 % 0 % 1019,8 hPa 0,0 l/m 0,3 km/h (0 Bft) O-NO 67 0 min 12,9 C 21,1 C 0,0 km/h (0 Bft)
06.06.2016 20:40 21,3 C 23,7 C 20,1 C 21,1 C 20,8 C 0,0 C 58 % 69 % 0 % 1019,8 hPa 0,0 l/m 0,0 km/h (0 Bft) O-NO 67 0 min 12,7 C 20,8 C 0,0 km/h (0 Bft)
06.06.2016 20:45 21,0 C 23,8 C 19,7 C 20,8 C 20,4 C 0,0 C 59 % 70 % 0 % 1019,9 hPa 0,0 l/m 0,0 km/h (0 Bft) O-NO 67 0 min 12,7 C 20,4 C 0,0 km/h (0 Bft)
06.06.2016 20:50 20,8 C 23,8 C 19,6 C 20,5 C 20,0 C 0,0 C 60 % 71 % 0 % 1019,9 hPa 0,0 l/m 0,0 km/h (0 Bft) O-NO 67 0 min 12,7 C 20,0 C 0,0 km/h (0 Bft)
06.06.2016 20:55 20,7 C 23,8 C 19,3 C 20,3 C 19,6 C 0,0 C 62 % 72 % 0 % 1019,9 hPa 0,0 l/m 0,0 km/h (0 Bft) NO 45 0 min 13,2 C 19,6 C 0,0 km/h (0 Bft)
06.06.2016 21:05 20,1 C 23,8 C 19,0 C 19,7 C 18,9 C 0,0 C 65 % 74 % 0 % 1019,9 hPa 0,0 l/m 0,0 km/h (0 Bft) O-NO 67 0 min 13,3 C 18,9 C 0,0 km/h (0 Bft)
06.06.2016 21:10 20,1 C 23,8 C 18,8 C 19,6 C 18,6 C 0,0 C 65 % 75 % 0 % 1019,9 hPa 0,0 l/m 0,0 km/h (0 Bft) O-NO 67 0 min 13,3 C 18,6 C 0,0 km/h (0 Bft)
06.06.2016 21:15 19,6 C 23,7 C 18,7 C 19,1 C 18,0 C 0,0 C 67 % 75 % 0 % 1019,9 hPa 0,0 l/m 0,0 km/h (0 Bft) O-NO 67 0 min 13,3 C 18,0 C 0,0 km/h (0 Bft)
06.06.2016 21:20 19,4 C 23,8 C 18,4 C 18,8 C 17,7 C 0,0 C 67 % 75 % 0 % 1019,9 hPa 0,0 l/m 0,0 km/h (0 Bft) O-NO 67 0 min 13,1 C 17,7 C 0,0 km/h (0 Bft)
06.06.2016 21:25 19,1 C 23,7 C 18,1 C 18,5 C 17,4 C 0,0 C 68 % 76 % 0 % 1020,6 hPa 0,0 l/m 0,0 km/h (0 Bft) O-NO 67 0 min 13,1 C 17,4 C 0,0 km/h (0 Bft)
06.06.2016 21:30 18,8 C 23,7 C 18,0 C 18,2 C 17,1 C 0,0 C 68 % 77 % 0 % 1020,6 hPa 0,0 l/m 0,0 km/h (0 Bft) O-NO 67 0 min 12,8 C 17,1 C 0,0 km/h (0 Bft)
06.06.2016 21:35 18,6 C 23,8 C 17,8 C 18,0 C 16,8 C 0,0 C 71 % 77 % 0 % 1020,6 hPa 0,0 l/m 0,0 km/h (0 Bft) O-NO 67 0 min 13,2 C 16,8 C 0,0 km/h (0 Bft)
06.06.2016 21:47 17,9 C 23,7 C 17,3 C 17,3 C 16,0 C 0,0 C 73 % 79 % 0 % 1020,2 hPa 0,0 l/m 0,0 km/h (0 Bft) N 0 0 min 13,0 C 16,0 C 0,0 km/h (0 Bft)
06.06.2016 21:59 17,5 C 23,7 C 16,8 C 16,8 C 15,3 C 0,0 C 74 % 80 % 0 % 1020,2 hPa 0,0 l/m 0,0 km/h (0 Bft) O-NO 67 0 min 12,8 C 15,3 C 0,0 km/h (0 Bft)
06.06.2016 22:00 17,5 C 23,7 C 16,8 C 16,8 C 15,3 C 0,0 C 74 % 80 % 0 % 1020,2 hPa 0,0 l/m 0,0 km/h (0 Bft) O-NO 67 0 min 12,8 C 15,3 C 0,0 km/h (0 Bft)
06.06.2016 22:01 17,5 C 23,7 C 16,8 C 16,8 C 15,3 C 0,0 C 74 % 80 % 0 % 1020,2 hPa 0,0 l/m 0,0 km/h (0 Bft) O-NO 67 0 min 12,8 C 15,3 C 0,0 km/h (0 Bft)
06.06.2016 22:02 17,5 C 23,7 C 16,8 C 16,8 C 15,3 C 0,0 C 74 % 80 % 0 % 1020,2 hPa 0,0 l/m 0,0 km/h (0 Bft) O-NO 67 0 min 12,8 C 15,3 C 0,0 km/h (0 Bft)
06.06.2016 22:03 17,1 C 23,7 C 16,7 C 16,5 C 15,2 C 0,0 C 75 % 80 % 0 % 1020,5 hPa 0,0 l/m 0,0 km/h (0 Bft) O-NO 67 0 min 12,6 C 15,2 C 0,0 km/h (0 Bft)
06.06.2016 22:06 17,1 C 23,7 C 16,7 C 16,5 C 15,2 C 0,0 C 75 % 80 % 0 % 1020,5 hPa 0,0 l/m 0,0 km/h (0 Bft) O-NO 67 0 min 12,6 C 15,2 C 0,0 km/h (0 Bft)
06.06.2016 22:15 16,6 C 23,8 C 16,3 C 16,1 C 15,0 C 0,0 C 76 % 81 % 0 % 1020,5 hPa 0,0 l/m 0,0 km/h (0 Bft) O-NO 67 0 min 12,3 C 15,0 C 0,0 km/h (0 Bft)
06.06.2016 22:20 16,5 C 23,8 C 16,2 C 15,9 C 14,7 C 0,0 C 76 % 81 % 0 % 1020,5 hPa 0,0 l/m 0,0 km/h (0 Bft) O-NO 67 0 min 12,3 C 14,7 C 0,0 km/h (0 Bft)
06.06.2016 22:25 16,2 C 23,8 C 16,3 C 15,6 C 14,3 C 0,0 C 77 % 81 % 0 % 1020,4 hPa 0,0 l/m 0,0 km/h (0 Bft) O 90 0 min 12,2 C 14,3 C 0,0 km/h (0 Bft)
06.06.2016 22:30 16,1 C 23,8 C 16,0 C 15,4 C 14,1 C 0,0 C 77 % 81 % 0 % 1020,4 hPa 0,0 l/m 0,0 km/h (0 Bft) N-NO 22 0 min 12,1 C 14,1 C 0,0 km/h (0 Bft)
06.06.2016 22:35 15,8 C 23,8 C 15,8 C 15,2 C 14,0 C 0,0 C 77 % 82 % 0 % 1020,4 hPa 0,0 l/m 0,0 km/h (0 Bft) N-NO 22 0 min 11,8 C 14,0 C 0,0 km/h (0 Bft)
06.06.2016 22:40 15,7 C 23,8 C 15,8 C 15,1 C 13,9 C 0,0 C 77 % 82 % 0 % 1020,4 hPa 0,0 l/m 0,0 km/h (0 Bft) N-NO 22 0 min 11,7 C 13,9 C 0,0 km/h (0 Bft)
06.06.2016 22:45 15,4 C 23,8 C 15,6 C 14,8 C 13,7 C 0,0 C 78 % 83 % 0 % 1020,3 hPa 0,0 l/m 0,0 km/h (0 Bft) N-NO 22 0 min 11,6 C 13,7 C 0,0 km/h (0 Bft)
06.06.2016 22:50 15,3 C 23,8 C 15,7 C 14,8 C 13,7 C 0,0 C 78 % 83 % 0 % 1020,3 hPa 0,0 l/m 0,0 km/h (0 Bft) N-NO 22 0 min 11,5 C 13,7 C 0,0 km/h (0 Bft)
06.06.2016 22:55 15,0 C 23,8 C 15,5 C 14,5 C 13,5 C 0,0 C 79 % 83 % 0 % 1020,3 hPa 0,0 l/m 0,0 km/h (0 Bft) N-NO 22 0 min 11,4 C 13,5 C 0,0 km/h (0 Bft)
06.06.2016 23:00 14,8 C 23,8 C 15,4 C 14,4 C 13,5 C 0,0 C 79 % 84 % 0 % 1020,3 hPa 0,0 l/m 0,0 km/h (0 Bft) N-NO 22 0 min 11,2 C 13,5 C 0,0 km/h (0 Bft)
06.06.2016 23:05 14,5 C 23,8 C 15,3 C 14,1 C 13,4 C 0,0 C 79 % 84 % 0 % 1020,3 hPa 0,0 l/m 0,0 km/h (0 Bft) NO 45 0 min 10,9 C 13,4 C 0,0 km/h (0 Bft)
06.06.2016 23:10 14,5 C 23,8 C 15,3 C 14,1 C 13,3 C 0,0 C 79 % 84 % 0 % 1020,3 hPa 0,0 l/m 0,0 km/h (0 Bft) NO 45 0 min 10,9 C 13,3 C 0,0 km/h (0 Bft)
06.06.2016 23:15 14,3 C 23,8 C 15,1 C 13,9 C 13,1 C 0,0 C 79 % 84 % 0 % 1020,3 hPa 0,0 l/m 0,0 km/h (0 Bft) N-NW 337 0 min 10,7 C 13,1 C 0,0 km/h (0 Bft)
06.06.2016 23:20 14,1 C 23,8 C 15,1 C 13,7 C 13,0 C 0,0 C 80 % 84 % 0 % 1020,3 hPa 0,0 l/m 0,0 km/h (0 Bft) N-NW 337 0 min 10,7 C 13,0 C 0,0 km/h (0 Bft)
06.06.2016 23:25 13,9 C 23,8 C 14,9 C 13,6 C 12,9 C 0,0 C 80 % 85 % 0 % 1020,4 hPa 0,0 l/m 0,0 km/h (0 Bft) N-NW 337 0 min 10,5 C 12,9 C 0,0 km/h (0 Bft)
06.06.2016 23:30 13,6 C 23,8 C 14,9 C 13,4 C 12,9 C 0,0 C 80 % 85 % 0 % 1020,4 hPa 0,0 l/m 0,0 km/h (0 Bft) N-NW 337 0 min 10,2 C 12,9 C 0,0 km/h (0 Bft)
06.06.2016 23:35 13,5 C 23,8 C 14,8 C 13,2 C 12,7 C 0,0 C 81 % 85 % 0 % 1020,4 hPa 0,0 l/m 0,0 km/h (0 Bft) SW 225 0 min 10,3 C 12,7 C 0,0 km/h (0 Bft)
06.06.2016 23:40 13,4 C 23,8 C 14,7 C 13,1 C 12,6 C 0,0 C 81 % 85 % 0 % 1020,4 hPa 0,0 l/m 0,0 km/h (0 Bft) SW 225 0 min 10,2 C 12,6 C 0,0 km/h (0 Bft)
06.06.2016 23:45 13,2 C 23,8 C 14,5 C 13,0 C 12,6 C 0,0 C 81 % 85 % 0 % 1020,4 hPa 0,0 l/m 0,0 km/h (0 Bft) O-NO 67 0 min 10,0 C 12,6 C 0,0 km/h (0 Bft)
06.06.2016 23:50 13,1 C 23,8 C 14,5 C 13,0 C 12,7 C 0,0 C 82 % 86 % 0 % 1020,4 hPa 0,0 l/m 0,0 km/h (0 Bft) O-NO 67 0 min 10,1 C 12,7 C 0,0 km/h (0 Bft)
06.06.2016 23:55 12,8 C 23,8 C 14,3 C 12,7 C 12,6 C 0,0 C 82 % 86 % 0 % 1020,4 hPa 0,0 l/m 0,0 km/h (0 Bft) O-NO 67 0 min 9,8 C 12,6 C 0,0 km/h (0 Bft)
_ Min-Zeit 05:05 08:55 05:20 05:15 05:15 00:00 18:30 17:40 00:00 00:00 - 00:00 - - - 05:05 05:15 00:00
Minimum _ 10,8 C 22,8 C 12,5 C 11,0 C 11,0 C 0,0 C 48 % 47 % 0 % 1016,9 hPa - 0,0 km/h (0 Bft) - - - 8,9 C 11,0 C 0,0 km/h (0 Bft)
_ Max-Zeit 15:00 00:00 17:25 09:25 09:25 08:05 07:35 03:48 07:05 21:25 00:00 16:42 - - 15:59 12:45 09:25 15:59
Maximum _ 25,1 C 24,0 C 27,1 C 31,3 C 31,3 C 10,9 C 93 % 90 % 100 % 1020,6 hPa 0,0 l/m 8,0 km/h
O-NO (2 Bft)
- - 24 min 18,7 C 31,3 C 15,1 km/h
O (3 Bft)
Durchschnitt _ 18,5 C 23,4 C 18,6 C 21,7 C 21,6 C 3,3 C 73 % 77 % 56 % 1018,6 hPa #0,0 l/m 1,7 km/h (1 Bft) O-NO - #13:25 h 13,3 C 21,6 C 2,4 km/h (1 Bft)
2016 www.wetterstation-wechselburg.de